sensor_id;sensor_type;location;lat;lon;timestamp;temperature;humidity
28484;DHT22;15704;48.834;8.736;2023-09-18T00:01:46;19.70;99.90
28484;DHT22;15704;48.834;8.736;2023-09-18T00:04:12;19.70;99.90
28484;DHT22;15704;48.834;8.736;2023-09-18T00:06:39;19.80;99.90
28484;DHT22;15704;48.834;8.736;2023-09-18T00:09:06;19.90;99.90
28484;DHT22;15704;48.834;8.736;2023-09-18T00:11:38;19.90;99.90
28484;DHT22;15704;48.834;8.736;2023-09-18T00:14:05;19.90;99.90
28484;DHT22;15704;48.834;8.736;2023-09-18T00:16:32;19.90;99.90
28484;DHT22;15704;48.834;8.736;2023-09-18T00:19:13;19.90;99.90
28484;DHT22;15704;48.834;8.736;2023-09-18T00:21:40;19.90;99.90
28484;DHT22;15704;48.834;8.736;2023-09-18T00:24:07;19.90;99.90
28484;DHT22;15704;48.834;8.736;2023-09-18T00:26:34;19.90;99.90
28484;DHT22;15704;48.834;8.736;2023-09-18T00:29:01;19.90;99.90
28484;DHT22;15704;48.834;8.736;2023-09-18T00:31:28;20.00;99.90
28484;DHT22;15704;48.834;8.736;2023-09-18T00:33:55;20.10;99.90
28484;DHT22;15704;48.834;8.736;2023-09-18T00:36:21;20.20;99.90
28484;DHT22;15704;48.834;8.736;2023-09-18T00:38:48;20.20;99.90
28484;DHT22;15704;48.834;8.736;2023-09-18T00:41:15;20.30;99.90
28484;DHT22;15704;48.834;8.736;2023-09-18T00:43:42;20.30;99.90
28484;DHT22;15704;48.834;8.736;2023-09-18T00:46:09;20.30;99.90
28484;DHT22;15704;48.834;8.736;2023-09-18T00:48:36;20.30;99.90
28484;DHT22;15704;48.834;8.736;2023-09-18T00:51:03;20.30;99.90
28484;DHT22;15704;48.834;8.736;2023-09-18T00:53:29;20.20;99.90
28484;DHT22;15704;48.834;8.736;2023-09-18T00:55:58;20.30;99.90
28484;DHT22;15704;48.834;8.736;2023-09-18T00:58:27;20.20;99.90
28484;DHT22;15704;48.834;8.736;2023-09-18T01:00:53;20.30;99.90
28484;DHT22;15704;48.834;8.736;2023-09-18T01:03:21;20.40;99.90
28484;DHT22;15704;48.834;8.736;2023-09-18T01:05:49;20.40;99.90
28484;DHT22;15704;48.834;8.736;2023-09-18T01:08:16;20.60;99.90
28484;DHT22;15704;48.834;8.736;2023-09-18T01:11:04;20.70;99.90
28484;DHT22;15704;48.834;8.736;2023-09-18T01:13:41;20.80;99.90
28484;DHT22;15704;48.834;8.736;2023-09-18T01:16:27;20.90;99.90
28484;DHT22;15704;48.834;8.736;2023-09-18T01:18:56;21.00;99.90
28484;DHT22;15704;48.834;8.736;2023-09-18T01:21:23;21.00;99.90
28484;DHT22;15704;48.834;8.736;2023-09-18T01:23:50;21.10;99.90
28484;DHT22;15704;48.834;8.736;2023-09-18T01:26:18;21.10;99.90
28484;DHT22;15704;48.834;8.736;2023-09-18T01:28:45;21.20;99.90
28484;DHT22;15704;48.834;8.736;2023-09-18T01:31:11;21.20;99.90
28484;DHT22;15704;48.834;8.736;2023-09-18T01:33:38;21.20;99.90
28484;DHT22;15704;48.834;8.736;2023-09-18T01:36:07;21.20;99.90
28484;DHT22;15704;48.834;8.736;2023-09-18T01:38:35;21.20;99.90
28484;DHT22;15704;48.834;8.736;2023-09-18T01:41:03;21.20;99.90
28484;DHT22;15704;48.834;8.736;2023-09-18T01:43:29;21.20;99.90
28484;DHT22;15704;48.834;8.736;2023-09-18T01:45:57;21.20;99.90
28484;DHT22;15704;48.834;8.736;2023-09-18T01:48:24;21.30;99.90
28484;DHT22;15704;48.834;8.736;2023-09-18T01:50:51;21.30;99.90
28484;DHT22;15704;48.834;8.736;2023-09-18T01:53:17;21.20;99.90
28484;DHT22;15704;48.834;8.736;2023-09-18T01:55:44;21.20;99.90
28484;DHT22;15704;48.834;8.736;2023-09-18T01:58:11;20.90;99.90
28484;DHT22;15704;48.834;8.736;2023-09-18T02:00:41;20.70;99.90
28484;DHT22;15704;48.834;8.736;2023-09-18T02:03:08;20.50;99.90
28484;DHT22;15704;48.834;8.736;2023-09-18T02:05:55;20.40;99.90
28484;DHT22;15704;48.834;8.736;2023-09-18T02:08:23;20.30;99.90
28484;DHT22;15704;48.834;8.736;2023-09-18T02:10:50;20.20;99.90
28484;DHT22;15704;48.834;8.736;2023-09-18T02:13:16;20.10;99.90
28484;DHT22;15704;48.834;8.736;2023-09-18T02:15:44;20.10;99.90
28484;DHT22;15704;48.834;8.736;2023-09-18T02:18:11;20.20;99.90
28484;DHT22;15704;48.834;8.736;2023-09-18T02:20:41;20.30;99.90
28484;DHT22;15704;48.834;8.736;2023-09-18T02:23:08;20.40;99.90
28484;DHT22;15704;48.834;8.736;2023-09-18T02:25:35;20.50;99.90
28484;DHT22;15704;48.834;8.736;2023-09-18T02:28:02;20.60;99.90
28484;DHT22;15704;48.834;8.736;2023-09-18T02:30:28;20.70;99.90
28484;DHT22;15704;48.834;8.736;2023-09-18T02:32:55;20.80;99.90
28484;DHT22;15704;48.834;8.736;2023-09-18T02:35:22;20.80;99.90
28484;DHT22;15704;48.834;8.736;2023-09-18T02:37:49;20.70;99.90
28484;DHT22;15704;48.834;8.736;2023-09-18T02:40:16;20.60;99.90
28484;DHT22;15704;48.834;8.736;2023-09-18T02:42:42;20.60;99.90
28484;DHT22;15704;48.834;8.736;2023-09-18T02:45:09;20.60;99.90
28484;DHT22;15704;48.834;8.736;2023-09-18T02:47:36;20.60;99.90
28484;DHT22;15704;48.834;8.736;2023-09-18T02:50:07;20.60;99.90
28484;DHT22;15704;48.834;8.736;2023-09-18T02:52:34;20.70;99.90
28484;DHT22;15704;48.834;8.736;2023-09-18T02:55:01;20.70;99.90
28484;DHT22;15704;48.834;8.736;2023-09-18T02:57:28;20.70;99.90
28484;DHT22;15704;48.834;8.736;2023-09-18T02:59:55;20.70;99.90
28484;DHT22;15704;48.834;8.736;2023-09-18T03:02:22;20.70;99.90
28484;DHT22;15704;48.834;8.736;2023-09-18T03:04:48;20.80;99.90
28484;DHT22;15704;48.834;8.736;2023-09-18T03:07:15;20.80;99.90
28484;DHT22;15704;48.834;8.736;2023-09-18T03:09:42;20.90;99.90
28484;DHT22;15704;48.834;8.736;2023-09-18T03:12:09;20.90;99.90
28484;DHT22;15704;48.834;8.736;2023-09-18T03:14:36;20.90;99.90
28484;DHT22;15704;48.834;8.736;2023-09-18T03:17:03;20.90;99.90
28484;DHT22;15704;48.834;8.736;2023-09-18T03:19:30;20.80;99.90
28484;DHT22;15704;48.834;8.736;2023-09-18T03:21:57;20.80;99.90
28484;DHT22;15704;48.834;8.736;2023-09-18T03:24:24;20.70;99.90
28484;DHT22;15704;48.834;8.736;2023-09-18T03:26:50;20.70;99.90
28484;DHT22;15704;48.834;8.736;2023-09-18T03:29:17;20.60;99.90
28484;DHT22;15704;48.834;8.736;2023-09-18T03:31:44;20.60;99.90
28484;DHT22;15704;48.834;8.736;2023-09-18T03:34:11;20.70;99.90
28484;DHT22;15704;48.834;8.736;2023-09-18T03:36:37;20.80;99.90
28484;DHT22;15704;48.834;8.736;2023-09-18T03:39:05;20.80;99.90
28484;DHT22;15704;48.834;8.736;2023-09-18T03:41:32;20.80;99.90
28484;DHT22;15704;48.834;8.736;2023-09-18T03:44:01;21.00;99.90
28484;DHT22;15704;48.834;8.736;2023-09-18T03:46:28;21.00;99.90
28484;DHT22;15704;48.834;8.736;2023-09-18T03:48:55;21.20;99.90
28484;DHT22;15704;48.834;8.736;2023-09-18T03:51:24;21.30;99.90
28484;DHT22;15704;48.834;8.736;2023-09-18T03:53:50;21.30;99.90
28484;DHT22;15704;48.834;8.736;2023-09-18T03:56:21;21.40;99.90
28484;DHT22;15704;48.834;8.736;2023-09-18T03:58:48;21.30;99.90
28484;DHT22;15704;48.834;8.736;2023-09-18T04:01:18;21.10;99.90
28484;DHT22;15704;48.834;8.736;2023-09-18T04:03:45;20.50;99.90
28484;DHT22;15704;48.834;8.736;2023-09-18T04:06:12;20.10;99.90
28484;DHT22;15704;48.834;8.736;2023-09-18T04:08:39;19.70;99.90
28484;DHT22;15704;48.834;8.736;2023-09-18T04:11:06;19.50;99.90
28484;DHT22;15704;48.834;8.736;2023-09-18T04:13:36;19.20;99.90
28484;DHT22;15704;48.834;8.736;2023-09-18T04:16:04;19.00;99.90
28484;DHT22;15704;48.834;8.736;2023-09-18T04:18:31;19.00;99.90
28484;DHT22;15704;48.834;8.736;2023-09-18T04:20:58;19.00;99.90
28484;DHT22;15704;48.834;8.736;2023-09-18T04:23:26;18.90;99.90
28484;DHT22;15704;48.834;8.736;2023-09-18T04:25:54;18.80;99.90
28484;DHT22;15704;48.834;8.736;2023-09-18T04:28:22;18.90;99.90
28484;DHT22;15704;48.834;8.736;2023-09-18T04:30:49;18.80;99.90
28484;DHT22;15704;48.834;8.736;2023-09-18T04:33:16;18.70;99.90
28484;DHT22;15704;48.834;8.736;2023-09-18T04:35:44;18.60;99.90
28484;DHT22;15704;48.834;8.736;2023-09-18T04:38:11;18.60;99.90
28484;DHT22;15704;48.834;8.736;2023-09-18T04:40:38;18.60;99.90
28484;DHT22;15704;48.834;8.736;2023-09-18T04:43:08;18.60;99.90
28484;DHT22;15704;48.834;8.736;2023-09-18T04:45:34;18.60;99.90
28484;DHT22;15704;48.834;8.736;2023-09-18T04:48:01;18.50;99.90
28484;DHT22;15704;48.834;8.736;2023-09-18T04:50:29;18.60;99.90
28484;DHT22;15704;48.834;8.736;2023-09-18T04:52:57;18.60;99.90
28484;DHT22;15704;48.834;8.736;2023-09-18T04:55:24;18.50;99.90
28484;DHT22;15704;48.834;8.736;2023-09-18T04:57:51;18.50;99.90
28484;DHT22;15704;48.834;8.736;2023-09-18T05:00:18;18.40;99.90
28484;DHT22;15704;48.834;8.736;2023-09-18T05:02:45;18.30;99.90
28484;DHT22;15704;48.834;8.736;2023-09-18T05:05:12;18.30;99.90
28484;DHT22;15704;48.834;8.736;2023-09-18T05:07:40;18.40;99.90
28484;DHT22;15704;48.834;8.736;2023-09-18T05:10:07;18.40;99.90
28484;DHT22;15704;48.834;8.736;2023-09-18T05:12:34;18.40;99.90
28484;DHT22;15704;48.834;8.736;2023-09-18T05:15:01;18.50;99.90
28484;DHT22;15704;48.834;8.736;2023-09-18T05:17:44;18.60;99.90
28484;DHT22;15704;48.834;8.736;2023-09-18T05:20:16;18.60;99.90
28484;DHT22;15704;48.834;8.736;2023-09-18T05:22:44;18.70;99.90
28484;DHT22;15704;48.834;8.736;2023-09-18T05:25:12;18.60;99.90
28484;DHT22;15704;48.834;8.736;2023-09-18T05:27:41;18.60;99.90
28484;DHT22;15704;48.834;8.736;2023-09-18T05:30:17;18.50;99.90
28484;DHT22;15704;48.834;8.736;2023-09-18T05:32:44;18.40;99.90
28484;DHT22;15704;48.834;8.736;2023-09-18T05:35:12;18.40;99.90
28484;DHT22;15704;48.834;8.736;2023-09-18T05:37:41;18.40;99.90
28484;DHT22;15704;48.834;8.736;2023-09-18T05:40:09;18.40;99.90
28484;DHT22;15704;48.834;8.736;2023-09-18T05:42:41;18.50;99.90
28484;DHT22;15704;48.834;8.736;2023-09-18T05:45:11;18.50;99.90
28484;DHT22;15704;48.834;8.736;2023-09-18T05:47:38;18.50;99.90
28484;DHT22;15704;48.834;8.736;2023-09-18T05:50:10;18.50;99.90
28484;DHT22;15704;48.834;8.736;2023-09-18T05:52:48;18.60;99.90
28484;DHT22;15704;48.834;8.736;2023-09-18T05:55:16;18.60;99.90
28484;DHT22;15704;48.834;8.736;2023-09-18T05:57:42;18.70;99.90
28484;DHT22;15704;48.834;8.736;2023-09-18T06:00:10;18.90;99.90
28484;DHT22;15704;48.834;8.736;2023-09-18T06:02:40;19.00;99.90
28484;DHT22;15704;48.834;8.736;2023-09-18T06:05:09;19.10;99.90
28484;DHT22;15704;48.834;8.736;2023-09-18T06:07:38;19.20;99.90
28484;DHT22;15704;48.834;8.736;2023-09-18T06:10:05;19.10;99.90
28484;DHT22;15704;48.834;8.736;2023-09-18T06:12:32;19.20;99.90
28484;DHT22;15704;48.834;8.736;2023-09-18T06:14:59;19.10;99.90
28484;DHT22;15704;48.834;8.736;2023-09-18T06:17:25;19.10;99.90
28484;DHT22;15704;48.834;8.736;2023-09-18T06:19:52;19.20;99.90
28484;DHT22;15704;48.834;8.736;2023-09-18T06:22:19;19.30;99.90
28484;DHT22;15704;48.834;8.736;2023-09-18T06:24:46;19.40;99.90
28484;DHT22;15704;48.834;8.736;2023-09-18T06:27:13;19.40;99.90
28484;DHT22;15704;48.834;8.736;2023-09-18T06:29:39;19.40;99.90
28484;DHT22;15704;48.834;8.736;2023-09-18T06:32:09;19.50;99.90
28484;DHT22;15704;48.834;8.736;2023-09-18T06:34:35;19.50;99.90
28484;DHT22;15704;48.834;8.736;2023-09-18T06:37:02;19.50;99.90
28484;DHT22;15704;48.834;8.736;2023-09-18T06:39:32;19.40;99.90
28484;DHT22;15704;48.834;8.736;2023-09-18T06:41:59;19.40;99.90
28484;DHT22;15704;48.834;8.736;2023-09-18T06:44:26;19.40;99.90
28484;DHT22;15704;48.834;8.736;2023-09-18T06:46:52;19.30;99.90
28484;DHT22;15704;48.834;8.736;2023-09-18T06:49:20;19.20;99.90
28484;DHT22;15704;48.834;8.736;2023-09-18T06:51:47;19.20;99.90
28484;DHT22;15704;48.834;8.736;2023-09-18T06:54:14;19.20;99.90
28484;DHT22;15704;48.834;8.736;2023-09-18T06:56:41;19.20;99.90
28484;DHT22;15704;48.834;8.736;2023-09-18T06:59:11;19.20;99.90
28484;DHT22;15704;48.834;8.736;2023-09-18T07:01:39;19.20;99.90
28484;DHT22;15704;48.834;8.736;2023-09-18T07:04:07;19.30;99.90
28484;DHT22;15704;48.834;8.736;2023-09-18T07:06:33;19.30;99.90
28484;DHT22;15704;48.834;8.736;2023-09-18T07:09:00;19.30;99.90
28484;DHT22;15704;48.834;8.736;2023-09-18T07:11:28;19.30;99.90
28484;DHT22;15704;48.834;8.736;2023-09-18T07:13:55;19.30;99.90
28484;DHT22;15704;48.834;8.736;2023-09-18T07:16:22;19.30;99.90
28484;DHT22;15704;48.834;8.736;2023-09-18T07:18:49;19.30;99.90
28484;DHT22;15704;48.834;8.736;2023-09-18T07:21:16;19.30;99.90
28484;DHT22;15704;48.834;8.736;2023-09-18T07:23:42;19.30;99.90
28484;DHT22;15704;48.834;8.736;2023-09-18T07:26:12;19.40;99.90
28484;DHT22;15704;48.834;8.736;2023-09-18T07:28:39;19.40;99.90
28484;DHT22;15704;48.834;8.736;2023-09-18T07:31:08;19.40;99.90
28484;DHT22;15704;48.834;8.736;2023-09-18T07:33:35;19.30;99.90
28484;DHT22;15704;48.834;8.736;2023-09-18T07:36:02;19.30;99.90
28484;DHT22;15704;48.834;8.736;2023-09-18T07:38:29;19.40;99.90
28484;DHT22;15704;48.834;8.736;2023-09-18T07:40:57;19.30;99.90
28484;DHT22;15704;48.834;8.736;2023-09-18T07:43:25;19.30;99.90
28484;DHT22;15704;48.834;8.736;2023-09-18T07:45:53;19.30;99.90
28484;DHT22;15704;48.834;8.736;2023-09-18T07:48:21;19.40;99.90
28484;DHT22;15704;48.834;8.736;2023-09-18T07:50:49;19.50;99.90
28484;DHT22;15704;48.834;8.736;2023-09-18T07:53:18;19.60;99.90
28484;DHT22;15704;48.834;8.736;2023-09-18T07:55:45;19.70;99.90
28484;DHT22;15704;48.834;8.736;2023-09-18T07:58:11;19.80;99.90
28484;DHT22;15704;48.834;8.736;2023-09-18T08:00:38;19.90;99.90
28484;DHT22;15704;48.834;8.736;2023-09-18T08:03:05;20.00;99.90
28484;DHT22;15704;48.834;8.736;2023-09-18T08:05:32;19.90;99.90
28484;DHT22;15704;48.834;8.736;2023-09-18T08:07:59;20.00;99.90
28484;DHT22;15704;48.834;8.736;2023-09-18T08:10:27;20.00;99.90
28484;DHT22;15704;48.834;8.736;2023-09-18T08:12:53;20.10;99.90
28484;DHT22;15704;48.834;8.736;2023-09-18T08:15:20;20.00;99.90
28484;DHT22;15704;48.834;8.736;2023-09-18T08:17:47;20.00;99.90
28484;DHT22;15704;48.834;8.736;2023-09-18T08:20:16;20.00;99.90
28484;DHT22;15704;48.834;8.736;2023-09-18T08:22:43;19.90;99.90
28484;DHT22;15704;48.834;8.736;2023-09-18T08:25:11;19.80;99.90
28484;DHT22;15704;48.834;8.736;2023-09-18T08:27:39;19.70;99.90
28484;DHT22;15704;48.834;8.736;2023-09-18T08:30:09;19.80;99.90
28484;DHT22;15704;48.834;8.736;2023-09-18T08:32:37;19.80;99.90
28484;DHT22;15704;48.834;8.736;2023-09-18T08:35:05;19.70;99.90
28484;DHT22;15704;48.834;8.736;2023-09-18T08:37:32;19.80;99.90
28484;DHT22;15704;48.834;8.736;2023-09-18T08:39:59;19.80;99.90
28484;DHT22;15704;48.834;8.736;2023-09-18T08:42:40;19.80;99.90
28484;DHT22;15704;48.834;8.736;2023-09-18T08:45:09;19.70;99.90
28484;DHT22;15704;48.834;8.736;2023-09-18T08:47:39;19.50;99.90
28484;DHT22;15704;48.834;8.736;2023-09-18T08:50:08;19.20;99.90
28484;DHT22;15704;48.834;8.736;2023-09-18T08:52:36;19.20;99.90
28484;DHT22;15704;48.834;8.736;2023-09-18T08:55:04;19.10;99.90
28484;DHT22;15704;48.834;8.736;2023-09-18T08:57:34;18.90;99.90
28484;DHT22;15704;48.834;8.736;2023-09-18T09:00:02;18.80;99.90
28484;DHT22;15704;48.834;8.736;2023-09-18T09:02:34;18.70;99.90
28484;DHT22;15704;48.834;8.736;2023-09-18T09:05:01;18.60;99.90
28484;DHT22;15704;48.834;8.736;2023-09-18T09:07:28;18.60;99.90
28484;DHT22;15704;48.834;8.736;2023-09-18T09:09:57;18.60;99.90
28484;DHT22;15704;48.834;8.736;2023-09-18T09:15:13;18.50;99.90
28484;DHT22;15704;48.834;8.736;2023-09-18T09:17:41;18.60;99.90
28484;DHT22;15704;48.834;8.736;2023-09-18T09:20:10;18.50;99.90
28484;DHT22;15704;48.834;8.736;2023-09-18T09:22:40;18.60;99.90
28484;DHT22;15704;48.834;8.736;2023-09-18T09:27:47;18.70;99.90
28484;DHT22;15704;48.834;8.736;2023-09-18T09:30:25;18.70;99.90
28484;DHT22;15704;48.834;8.736;2023-09-18T09:32:53;18.70;99.90
28484;DHT22;15704;48.834;8.736;2023-09-18T09:35:26;18.70;99.90
28484;DHT22;15704;48.834;8.736;2023-09-18T09:38:11;18.70;99.90
28484;DHT22;15704;48.834;8.736;2023-09-18T09:40:39;18.80;99.90
28484;DHT22;15704;48.834;8.736;2023-09-18T09:43:09;19.00;99.90
28484;DHT22;15704;48.834;8.736;2023-09-18T09:45:37;19.10;99.90
28484;DHT22;15704;48.834;8.736;2023-09-18T09:48:05;19.20;99.90
28484;DHT22;15704;48.834;8.736;2023-09-18T09:50:44;19.10;99.90
28484;DHT22;15704;48.834;8.736;2023-09-18T09:53:15;19.20;99.90
28484;DHT22;15704;48.834;8.736;2023-09-18T09:55:42;19.40;99.90
28484;DHT22;15704;48.834;8.736;2023-09-18T09:58:09;19.40;99.90
28484;DHT22;15704;48.834;8.736;2023-09-18T10:00:46;19.30;99.90
28484;DHT22;15704;48.834;8.736;2023-09-18T10:03:18;19.20;99.90
28484;DHT22;15704;48.834;8.736;2023-09-18T10:05:47;19.20;99.90
28484;DHT22;15704;48.834;8.736;2023-09-18T10:08:18;19.10;99.90
28484;DHT22;15704;48.834;8.736;2023-09-18T10:10:50;19.10;99.90
28484;DHT22;15704;48.834;8.736;2023-09-18T10:13:23;19.00;99.90
28484;DHT22;15704;48.834;8.736;2023-09-18T10:15:54;19.10;99.90
28484;DHT22;15704;48.834;8.736;2023-09-18T10:18:27;19.20;99.90
28484;DHT22;15704;48.834;8.736;2023-09-18T10:26:23;19.40;99.90
28484;DHT22;15704;48.834;8.736;2023-09-18T10:28:56;19.50;99.90
28484;DHT22;15704;48.834;8.736;2023-09-18T10:31:27;19.60;99.90
28484;DHT22;15704;48.834;8.736;2023-09-18T10:33:58;19.70;99.90
28484;DHT22;15704;48.834;8.736;2023-09-18T10:36:26;19.70;99.90
28484;DHT22;15704;48.834;8.736;2023-09-18T10:38:59;19.70;99.90
28484;DHT22;15704;48.834;8.736;2023-09-18T10:41:27;19.40;99.90
28484;DHT22;15704;48.834;8.736;2023-09-18T10:43:56;19.30;99.90
28484;DHT22;15704;48.834;8.736;2023-09-18T10:46:25;19.30;99.90
28484;DHT22;15704;48.834;8.736;2023-09-18T10:48:55;19.20;99.90
28484;DHT22;15704;48.834;8.736;2023-09-18T10:51:23;19.20;99.90
28484;DHT22;15704;48.834;8.736;2023-09-18T10:53:51;19.20;99.90
28484;DHT22;15704;48.834;8.736;2023-09-18T10:56:21;19.40;99.90
28484;DHT22;15704;48.834;8.736;2023-09-18T10:58:57;19.30;99.90
28484;DHT22;15704;48.834;8.736;2023-09-18T11:01:24;19.40;99.90
28484;DHT22;15704;48.834;8.736;2023-09-18T11:03:58;19.40;99.90
28484;DHT22;15704;48.834;8.736;2023-09-18T11:06:26;19.40;99.90
28484;DHT22;15704;48.834;8.736;2023-09-18T11:09:04;19.50;99.90
28484;DHT22;15704;48.834;8.736;2023-09-18T11:11:32;19.50;99.90
28484;DHT22;15704;48.834;8.736;2023-09-18T11:14:00;19.70;99.90
28484;DHT22;15704;48.834;8.736;2023-09-18T11:19:09;20.00;99.90
28484;DHT22;15704;48.834;8.736;2023-09-18T11:21:38;20.20;99.90
28484;DHT22;15704;48.834;8.736;2023-09-18T11:24:21;20.30;99.90
28484;DHT22;15704;48.834;8.736;2023-09-18T11:26:50;20.40;99.90
28484;DHT22;15704;48.834;8.736;2023-09-18T11:29:22;20.40;99.90
28484;DHT22;15704;48.834;8.736;2023-09-18T11:31:54;20.40;99.90
28484;DHT22;15704;48.834;8.736;2023-09-18T11:34:25;20.40;99.90
28484;DHT22;15704;48.834;8.736;2023-09-18T11:36:55;20.30;99.90
28484;DHT22;15704;48.834;8.736;2023-09-18T11:42:13;20.40;99.90
28484;DHT22;15704;48.834;8.736;2023-09-18T11:44:40;20.50;99.90
28484;DHT22;15704;48.834;8.736;2023-09-18T11:47:15;20.40;99.90
28484;DHT22;15704;48.834;8.736;2023-09-18T11:49:53;20.30;99.90
28484;DHT22;15704;48.834;8.736;2023-09-18T11:52:26;20.30;99.90
28484;DHT22;15704;48.834;8.736;2023-09-18T11:54:56;20.30;99.90
28484;DHT22;15704;48.834;8.736;2023-09-18T11:57:23;20.30;99.90
28484;DHT22;15704;48.834;8.736;2023-09-18T11:59:51;20.30;99.90
28484;DHT22;15704;48.834;8.736;2023-09-18T12:04:55;20.60;99.90
28484;DHT22;15704;48.834;8.736;2023-09-18T12:07:23;20.60;99.90
28484;DHT22;15704;48.834;8.736;2023-09-18T12:09:51;20.80;99.90
28484;DHT22;15704;48.834;8.736;2023-09-18T12:12:17;21.00;99.90
28484;DHT22;15704;48.834;8.736;2023-09-18T12:14:44;21.30;99.90
28484;DHT22;15704;48.834;8.736;2023-09-18T12:17:15;21.70;99.90
28484;DHT22;15704;48.834;8.736;2023-09-18T12:19:55;22.00;99.90
28484;DHT22;15704;48.834;8.736;2023-09-18T12:22:29;22.00;99.90
28484;DHT22;15704;48.834;8.736;2023-09-18T12:27:41;22.10;99.90
28484;DHT22;15704;48.834;8.736;2023-09-18T12:30:08;22.40;99.90
28484;DHT22;15704;48.834;8.736;2023-09-18T12:32:37;22.20;99.90
28484;DHT22;15704;48.834;8.736;2023-09-18T12:35:06;22.10;99.90
28484;DHT22;15704;48.834;8.736;2023-09-18T12:37:40;22.10;99.90
28484;DHT22;15704;48.834;8.736;2023-09-18T12:40:24;22.10;99.90
28484;DHT22;15704;48.834;8.736;2023-09-18T12:42:53;22.30;99.90
28484;DHT22;15704;48.834;8.736;2023-09-18T12:45:22;22.50;99.90
28484;DHT22;15704;48.834;8.736;2023-09-18T12:47:49;22.50;99.90
28484;DHT22;15704;48.834;8.736;2023-09-18T12:50:16;22.50;99.90
28484;DHT22;15704;48.834;8.736;2023-09-18T12:52:44;22.90;99.90
28484;DHT22;15704;48.834;8.736;2023-09-18T12:55:25;22.70;99.90
28484;DHT22;15704;48.834;8.736;2023-09-18T12:57:53;22.80;99.90
28484;DHT22;15704;48.834;8.736;2023-09-18T13:00:21;23.10;99.90
28484;DHT22;15704;48.834;8.736;2023-09-18T13:02:53;23.00;99.90
28484;DHT22;15704;48.834;8.736;2023-09-18T13:05:24;23.10;99.90
28484;DHT22;15704;48.834;8.736;2023-09-18T13:07:53;22.90;99.90
28484;DHT22;15704;48.834;8.736;2023-09-18T13:10:20;22.90;99.90
28484;DHT22;15704;48.834;8.736;2023-09-18T13:12:53;22.80;99.90
28484;DHT22;15704;48.834;8.736;2023-09-18T13:15:32;22.90;99.90
28484;DHT22;15704;48.834;8.736;2023-09-18T13:18:08;22.80;99.90
28484;DHT22;15704;48.834;8.736;2023-09-18T13:20:39;23.00;99.90
28484;DHT22;15704;48.834;8.736;2023-09-18T13:23:07;23.00;99.90
28484;DHT22;15704;48.834;8.736;2023-09-18T13:25:40;23.10;99.90
28484;DHT22;15704;48.834;8.736;2023-09-18T13:28:11;23.30;99.90
28484;DHT22;15704;48.834;8.736;2023-09-18T13:30:40;23.30;99.90
28484;DHT22;15704;48.834;8.736;2023-09-18T13:33:17;23.40;99.90
28484;DHT22;15704;48.834;8.736;2023-09-18T13:35:45;23.60;99.90
28484;DHT22;15704;48.834;8.736;2023-09-18T13:38:12;23.80;99.90
28484;DHT22;15704;48.834;8.736;2023-09-18T13:40:41;23.70;99.90
28484;DHT22;15704;48.834;8.736;2023-09-18T13:43:09;23.40;99.90
28484;DHT22;15704;48.834;8.736;2023-09-18T13:45:36;23.30;99.90
28484;DHT22;15704;48.834;8.736;2023-09-18T13:48:05;23.10;99.90
28484;DHT22;15704;48.834;8.736;2023-09-18T13:50:33;23.10;99.90
28484;DHT22;15704;48.834;8.736;2023-09-18T13:53:01;22.80;99.90
28484;DHT22;15704;48.834;8.736;2023-09-18T13:55:30;22.90;99.90
28484;DHT22;15704;48.834;8.736;2023-09-18T13:57:57;22.70;99.90
28484;DHT22;15704;48.834;8.736;2023-09-18T14:00:24;22.70;99.90
28484;DHT22;15704;48.834;8.736;2023-09-18T14:02:52;22.50;99.90
28484;DHT22;15704;48.834;8.736;2023-09-18T14:05:19;22.60;99.90
28484;DHT22;15704;48.834;8.736;2023-09-18T14:07:47;22.70;99.90
28484;DHT22;15704;48.834;8.736;2023-09-18T14:10:14;22.80;99.90
28484;DHT22;15704;48.834;8.736;2023-09-18T14:12:43;23.00;99.90
28484;DHT22;15704;48.834;8.736;2023-09-18T14:15:10;22.90;99.90
28484;DHT22;15704;48.834;8.736;2023-09-18T14:17:37;23.00;99.90
28484;DHT22;15704;48.834;8.736;2023-09-18T14:20:05;22.90;99.90
28484;DHT22;15704;48.834;8.736;2023-09-18T14:22:34;23.20;99.90
28484;DHT22;15704;48.834;8.736;2023-09-18T14:25:02;23.20;99.90
28484;DHT22;15704;48.834;8.736;2023-09-18T14:27:34;23.40;99.90
28484;DHT22;15704;48.834;8.736;2023-09-18T14:30:03;23.50;99.90
28484;DHT22;15704;48.834;8.736;2023-09-18T14:32:34;23.60;99.90
28484;DHT22;15704;48.834;8.736;2023-09-18T14:35:04;23.70;99.90
28484;DHT22;15704;48.834;8.736;2023-09-18T14:37:32;23.60;99.90
28484;DHT22;15704;48.834;8.736;2023-09-18T14:39:59;23.30;99.90
28484;DHT22;15704;48.834;8.736;2023-09-18T14:42:26;23.10;99.90
28484;DHT22;15704;48.834;8.736;2023-09-18T14:44:52;22.90;99.90
28484;DHT22;15704;48.834;8.736;2023-09-18T14:47:19;22.70;99.90
28484;DHT22;15704;48.834;8.736;2023-09-18T14:49:49;22.70;99.90
28484;DHT22;15704;48.834;8.736;2023-09-18T14:52:16;22.70;99.90
28484;DHT22;15704;48.834;8.736;2023-09-18T14:54:43;22.60;99.90
28484;DHT22;15704;48.834;8.736;2023-09-18T14:57:10;22.50;99.90
28484;DHT22;15704;48.834;8.736;2023-09-18T14:59:37;22.40;99.90
28484;DHT22;15704;48.834;8.736;2023-09-18T15:02:08;22.30;99.90
28484;DHT22;15704;48.834;8.736;2023-09-18T15:04:35;22.30;99.90
28484;DHT22;15704;48.834;8.736;2023-09-18T15:07:02;22.30;99.90
28484;DHT22;15704;48.834;8.736;2023-09-18T15:09:29;22.20;99.90
28484;DHT22;15704;48.834;8.736;2023-09-18T15:11:56;22.30;99.90
28484;DHT22;15704;48.834;8.736;2023-09-18T15:14:23;22.20;99.90
28484;DHT22;15704;48.834;8.736;2023-09-18T15:16:51;22.10;99.90
28484;DHT22;15704;48.834;8.736;2023-09-18T15:19:18;22.00;99.90
28484;DHT22;15704;48.834;8.736;2023-09-18T15:21:46;22.00;99.90
28484;DHT22;15704;48.834;8.736;2023-09-18T15:24:13;21.90;99.90
28484;DHT22;15704;48.834;8.736;2023-09-18T15:26:40;21.80;99.90
28484;DHT22;15704;48.834;8.736;2023-09-18T15:29:07;21.80;99.90
28484;DHT22;15704;48.834;8.736;2023-09-18T15:31:35;21.70;99.90
28484;DHT22;15704;48.834;8.736;2023-09-18T15:34:02;21.50;99.90
28484;DHT22;15704;48.834;8.736;2023-09-18T15:36:30;21.40;99.90
28484;DHT22;15704;48.834;8.736;2023-09-18T15:38:58;21.30;99.90
28484;DHT22;15704;48.834;8.736;2023-09-18T15:41:26;21.40;99.90
28484;DHT22;15704;48.834;8.736;2023-09-18T15:43:56;21.30;99.90
28484;DHT22;15704;48.834;8.736;2023-09-18T15:46:23;21.20;99.90
28484;DHT22;15704;48.834;8.736;2023-09-18T15:48:50;21.10;99.90
28484;DHT22;15704;48.834;8.736;2023-09-18T15:51:17;21.00;99.90
28484;DHT22;15704;48.834;8.736;2023-09-18T15:53:45;20.90;99.90
28484;DHT22;15704;48.834;8.736;2023-09-18T15:56:12;20.80;99.90
28484;DHT22;15704;48.834;8.736;2023-09-18T15:58:40;20.60;99.90
28484;DHT22;15704;48.834;8.736;2023-09-18T16:01:06;20.50;99.90